sensor_id;sensor_type;location;lat;lon;timestamp;temperature;humidity
35373;DHT22;21476;51.652;7.852;2022-12-07T00:01:19;5.00;99.90
35373;DHT22;21476;51.652;7.852;2022-12-07T00:03:46;5.00;99.90
35373;DHT22;21476;51.652;7.852;2022-12-07T00:06:13;5.10;99.90
35373;DHT22;21476;51.652;7.852;2022-12-07T00:08:39;5.00;99.90
35373;DHT22;21476;51.652;7.852;2022-12-07T00:11:07;5.00;99.90
35373;DHT22;21476;51.652;7.852;2022-12-07T00:13:34;5.00;99.90
35373;DHT22;21476;51.652;7.852;2022-12-07T00:16:05;5.00;99.90
35373;DHT22;21476;51.652;7.852;2022-12-07T00:18:31;5.10;99.90
35373;DHT22;21476;51.652;7.852;2022-12-07T00:21:02;5.10;99.90
35373;DHT22;21476;51.652;7.852;2022-12-07T00:23:29;5.00;99.90
35373;DHT22;21476;51.652;7.852;2022-12-07T00:25:54;5.10;99.90
35373;DHT22;21476;51.652;7.852;2022-12-07T00:28:20;5.10;99.90
35373;DHT22;21476;51.652;7.852;2022-12-07T00:30:45;5.10;99.90
35373;DHT22;21476;51.652;7.852;2022-12-07T00:33:11;5.10;99.90
35373;DHT22;21476;51.652;7.852;2022-12-07T00:38:15;5.10;99.90
35373;DHT22;21476;51.652;7.852;2022-12-07T00:40:40;5.20;99.90
35373;DHT22;21476;51.652;7.852;2022-12-07T00:43:06;5.10;99.90
35373;DHT22;21476;51.652;7.852;2022-12-07T00:45:31;5.10;99.90
35373;DHT22;21476;51.652;7.852;2022-12-07T00:47:57;5.10;99.90
35373;DHT22;21476;51.652;7.852;2022-12-07T00:50:23;5.10;99.90
35373;DHT22;21476;51.652;7.852;2022-12-07T00:52:48;5.10;99.90
35373;DHT22;21476;51.652;7.852;2022-12-07T00:55:14;5.00;99.90
35373;DHT22;21476;51.652;7.852;2022-12-07T00:57:40;5.10;99.90
35373;DHT22;21476;51.652;7.852;2022-12-07T01:00:06;5.10;99.90
35373;DHT22;21476;51.652;7.852;2022-12-07T01:02:32;5.10;99.90
35373;DHT22;21476;51.652;7.852;2022-12-07T01:04:57;5.10;99.90
35373;DHT22;21476;51.652;7.852;2022-12-07T01:07:23;5.20;99.90
35373;DHT22;21476;51.652;7.852;2022-12-07T01:09:48;5.20;99.90
35373;DHT22;21476;51.652;7.852;2022-12-07T01:12:14;5.20;99.90
35373;DHT22;21476;51.652;7.852;2022-12-07T01:14:41;5.20;99.90
35373;DHT22;21476;51.652;7.852;2022-12-07T01:17:07;5.10;99.90
35373;DHT22;21476;51.652;7.852;2022-12-07T01:19:32;5.10;99.90
35373;DHT22;21476;51.652;7.852;2022-12-07T01:21:58;5.10;99.90
35373;DHT22;21476;51.652;7.852;2022-12-07T01:24:24;5.10;99.90
35373;DHT22;21476;51.652;7.852;2022-12-07T01:26:49;5.10;99.90
35373;DHT22;21476;51.652;7.852;2022-12-07T01:29:15;5.10;99.90
35373;DHT22;21476;51.652;7.852;2022-12-07T01:31:40;5.10;99.90
35373;DHT22;21476;51.652;7.852;2022-12-07T01:34:10;5.20;99.90
35373;DHT22;21476;51.652;7.852;2022-12-07T01:36:36;5.20;99.90
35373;DHT22;21476;51.652;7.852;2022-12-07T01:39:05;5.30;99.90
35373;DHT22;21476;51.652;7.852;2022-12-07T01:41:33;5.30;99.90
35373;DHT22;21476;51.652;7.852;2022-12-07T01:44:19;5.30;99.90
35373;DHT22;21476;51.652;7.852;2022-12-07T01:46:49;5.20;99.90
35373;DHT22;21476;51.652;7.852;2022-12-07T01:51:47;5.10;99.90
35373;DHT22;21476;51.652;7.852;2022-12-07T01:54:14;5.10;99.90
35373;DHT22;21476;51.652;7.852;2022-12-07T01:56:47;5.20;99.90
35373;DHT22;21476;51.652;7.852;2022-12-07T01:59:15;5.10;99.90
35373;DHT22;21476;51.652;7.852;2022-12-07T02:01:41;5.10;99.90
35373;DHT22;21476;51.652;7.852;2022-12-07T02:04:07;5.10;99.90
35373;DHT22;21476;51.652;7.852;2022-12-07T02:06:33;5.10;99.90
35373;DHT22;21476;51.652;7.852;2022-12-07T02:08:59;5.10;99.90
35373;DHT22;21476;51.652;7.852;2022-12-07T02:11:25;5.20;99.90
35373;DHT22;21476;51.652;7.852;2022-12-07T02:13:51;5.20;99.90
35373;DHT22;21476;51.652;7.852;2022-12-07T02:27:52;5.20;99.90
35373;DHT22;21476;51.652;7.852;2022-12-07T02:30:23;5.10;99.90
35373;DHT22;21476;51.652;7.852;2022-12-07T02:35:35;5.10;99.90
35373;DHT22;21476;51.652;7.852;2022-12-07T02:40:54;5.10;99.90
35373;DHT22;21476;51.652;7.852;2022-12-07T02:43:26;5.10;99.90
35373;DHT22;21476;51.652;7.852;2022-12-07T02:45:56;5.10;99.90
35373;DHT22;21476;51.652;7.852;2022-12-07T02:48:24;5.20;99.90
35373;DHT22;21476;51.652;7.852;2022-12-07T02:50:52;5.10;99.90
35373;DHT22;21476;51.652;7.852;2022-12-07T02:53:38;5.10;99.90
35373;DHT22;21476;51.652;7.852;2022-12-07T03:07:57;4.80;99.90
35373;DHT22;21476;51.652;7.852;2022-12-07T03:19:00;4.70;99.90
35373;DHT22;21476;51.652;7.852;2022-12-07T03:21:34;4.70;99.90
35373;DHT22;21476;51.652;7.852;2022-12-07T03:24:04;4.70;99.90
35373;DHT22;21476;51.652;7.852;2022-12-07T03:26:34;4.80;99.90
35373;DHT22;21476;51.652;7.852;2022-12-07T03:29:10;4.70;99.90
35373;DHT22;21476;51.652;7.852;2022-12-07T03:31:41;4.70;99.90
35373;DHT22;21476;51.652;7.852;2022-12-07T03:34:20;4.70;99.90
35373;DHT22;21476;51.652;7.852;2022-12-07T03:39:34;4.60;99.90
35373;DHT22;21476;51.652;7.852;2022-12-07T03:42:04;4.50;99.90
35373;DHT22;21476;51.652;7.852;2022-12-07T03:44:31;4.50;99.90
35373;DHT22;21476;51.652;7.852;2022-12-07T03:52:32;4.20;99.90
35373;DHT22;21476;51.652;7.852;2022-12-07T03:55:15;4.20;99.90
35373;DHT22;21476;51.652;7.852;2022-12-07T03:57:45;4.10;99.90
35373;DHT22;21476;51.652;7.852;2022-12-07T04:00:12;4.00;99.90
35373;DHT22;21476;51.652;7.852;2022-12-07T04:02:39;3.90;99.90
35373;DHT22;21476;51.652;7.852;2022-12-07T04:05:05;3.90;99.90
35373;DHT22;21476;51.652;7.852;2022-12-07T04:07:31;3.90;99.90
35373;DHT22;21476;51.652;7.852;2022-12-07T04:09:56;3.90;99.90
35373;DHT22;21476;51.652;7.852;2022-12-07T04:12:23;3.90;99.90
35373;DHT22;21476;51.652;7.852;2022-12-07T04:14:49;3.90;99.90
35373;DHT22;21476;51.652;7.852;2022-12-07T04:17:14;3.90;99.90
35373;DHT22;21476;51.652;7.852;2022-12-07T04:19:40;3.90;99.90
35373;DHT22;21476;51.652;7.852;2022-12-07T04:22:06;3.80;99.90
35373;DHT22;21476;51.652;7.852;2022-12-07T04:24:33;3.80;99.90
35373;DHT22;21476;51.652;7.852;2022-12-07T04:26:58;3.70;99.90
35373;DHT22;21476;51.652;7.852;2022-12-07T04:29:24;3.70;99.90
35373;DHT22;21476;51.652;7.852;2022-12-07T04:31:50;3.70;99.90
35373;DHT22;21476;51.652;7.852;2022-12-07T04:34:17;3.70;99.90
35373;DHT22;21476;51.652;7.852;2022-12-07T04:36:43;3.70;99.90
35373;DHT22;21476;51.652;7.852;2022-12-07T04:39:18;3.70;99.90
35373;DHT22;21476;51.652;7.852;2022-12-07T04:41:44;3.70;99.90
35373;DHT22;21476;51.652;7.852;2022-12-07T04:44:10;3.60;99.90
35373;DHT22;21476;51.652;7.852;2022-12-07T04:46:39;3.60;99.90
35373;DHT22;21476;51.652;7.852;2022-12-07T04:49:05;3.60;99.90
35373;DHT22;21476;51.652;7.852;2022-12-07T04:51:30;3.60;99.90
35373;DHT22;21476;51.652;7.852;2022-12-07T04:53:57;3.60;99.90
35373;DHT22;21476;51.652;7.852;2022-12-07T04:56:23;3.60;99.90
35373;DHT22;21476;51.652;7.852;2022-12-07T04:58:49;3.50;99.90
35373;DHT22;21476;51.652;7.852;2022-12-07T05:01:17;3.50;99.90
35373;DHT22;21476;51.652;7.852;2022-12-07T05:03:43;3.60;99.90
35373;DHT22;21476;51.652;7.852;2022-12-07T05:06:10;3.60;99.90
35373;DHT22;21476;51.652;7.852;2022-12-07T05:08:36;3.50;99.90
35373;DHT22;21476;51.652;7.852;2022-12-07T05:11:02;3.50;99.90
35373;DHT22;21476;51.652;7.852;2022-12-07T05:13:28;3.50;99.90
35373;DHT22;21476;51.652;7.852;2022-12-07T05:15:54;3.40;99.90
35373;DHT22;21476;51.652;7.852;2022-12-07T05:18:20;3.40;99.90
35373;DHT22;21476;51.652;7.852;2022-12-07T05:20:46;3.40;99.90
35373;DHT22;21476;51.652;7.852;2022-12-07T05:23:11;3.30;99.90
35373;DHT22;21476;51.652;7.852;2022-12-07T05:25:37;3.30;99.90
35373;DHT22;21476;51.652;7.852;2022-12-07T05:28:04;3.30;99.90
35373;DHT22;21476;51.652;7.852;2022-12-07T05:30:30;3.30;99.90
35373;DHT22;21476;51.652;7.852;2022-12-07T05:32:56;3.40;99.90
35373;DHT22;21476;51.652;7.852;2022-12-07T05:35:22;3.50;99.90
35373;DHT22;21476;51.652;7.852;2022-12-07T05:37:47;3.50;99.90
35373;DHT22;21476;51.652;7.852;2022-12-07T05:40:14;3.50;99.90
35373;DHT22;21476;51.652;7.852;2022-12-07T05:42:41;3.60;99.90
35373;DHT22;21476;51.652;7.852;2022-12-07T05:45:07;3.60;99.90
35373;DHT22;21476;51.652;7.852;2022-12-07T05:47:33;3.60;99.90
35373;DHT22;21476;51.652;7.852;2022-12-07T05:49:58;3.70;99.90
35373;DHT22;21476;51.652;7.852;2022-12-07T05:52:24;3.60;99.90
35373;DHT22;21476;51.652;7.852;2022-12-07T05:54:50;3.70;99.90
35373;DHT22;21476;51.652;7.852;2022-12-07T05:57:15;3.80;99.90
35373;DHT22;21476;51.652;7.852;2022-12-07T05:59:41;3.80;99.90
35373;DHT22;21476;51.652;7.852;2022-12-07T06:02:12;3.80;99.90
35373;DHT22;21476;51.652;7.852;2022-12-07T06:04:41;3.80;99.90
35373;DHT22;21476;51.652;7.852;2022-12-07T06:07:07;3.80;99.90
35373;DHT22;21476;51.652;7.852;2022-12-07T06:09:34;3.90;99.90
35373;DHT22;21476;51.652;7.852;2022-12-07T06:12:00;3.90;99.90
35373;DHT22;21476;51.652;7.852;2022-12-07T06:14:45;3.90;99.90
35373;DHT22;21476;51.652;7.852;2022-12-07T06:17:12;4.00;99.90
35373;DHT22;21476;51.652;7.852;2022-12-07T06:19:38;4.00;99.90
35373;DHT22;21476;51.652;7.852;2022-12-07T06:22:04;3.90;99.90
35373;DHT22;21476;51.652;7.852;2022-12-07T06:24:31;3.90;99.90
35373;DHT22;21476;51.652;7.852;2022-12-07T06:26:57;3.90;99.90
35373;DHT22;21476;51.652;7.852;2022-12-07T06:29:23;4.00;99.90
35373;DHT22;21476;51.652;7.852;2022-12-07T06:31:49;4.00;99.90
35373;DHT22;21476;51.652;7.852;2022-12-07T06:34:19;4.00;99.90
35373;DHT22;21476;51.652;7.852;2022-12-07T06:36:46;4.00;99.90
35373;DHT22;21476;51.652;7.852;2022-12-07T06:39:17;3.90;99.90
35373;DHT22;21476;51.652;7.852;2022-12-07T06:41:42;4.00;99.90
35373;DHT22;21476;51.652;7.852;2022-12-07T06:44:08;4.00;99.90
35373;DHT22;21476;51.652;7.852;2022-12-07T06:46:34;3.90;99.90
35373;DHT22;21476;51.652;7.852;2022-12-07T06:49:01;3.90;99.90
35373;DHT22;21476;51.652;7.852;2022-12-07T06:51:26;3.90;99.90
35373;DHT22;21476;51.652;7.852;2022-12-07T06:53:52;4.00;99.90
35373;DHT22;21476;51.652;7.852;2022-12-07T06:56:18;3.90;99.90
35373;DHT22;21476;51.652;7.852;2022-12-07T06:58:43;3.90;99.90
35373;DHT22;21476;51.652;7.852;2022-12-07T07:01:14;3.80;99.90
35373;DHT22;21476;51.652;7.852;2022-12-07T07:03:40;3.90;99.90
35373;DHT22;21476;51.652;7.852;2022-12-07T07:06:06;3.90;99.90
35373;DHT22;21476;51.652;7.852;2022-12-07T07:08:36;3.90;99.90
35373;DHT22;21476;51.652;7.852;2022-12-07T07:11:02;3.80;99.90
35373;DHT22;21476;51.652;7.852;2022-12-07T07:13:28;3.80;99.90
35373;DHT22;21476;51.652;7.852;2022-12-07T07:15:54;3.70;99.90
35373;DHT22;21476;51.652;7.852;2022-12-07T07:18:20;3.70;99.90
35373;DHT22;21476;51.652;7.852;2022-12-07T07:20:45;3.70;99.90
35373;DHT22;21476;51.652;7.852;2022-12-07T07:23:11;3.70;99.90
35373;DHT22;21476;51.652;7.852;2022-12-07T07:25:37;3.80;99.90
35373;DHT22;21476;51.652;7.852;2022-12-07T07:28:03;3.70;99.90
35373;DHT22;21476;51.652;7.852;2022-12-07T07:30:29;3.70;99.90
35373;DHT22;21476;51.652;7.852;2022-12-07T07:32:58;3.60;99.90
35373;DHT22;21476;51.652;7.852;2022-12-07T07:35:25;3.60;99.90
35373;DHT22;21476;51.652;7.852;2022-12-07T07:37:51;3.60;99.90
35373;DHT22;21476;51.652;7.852;2022-12-07T07:40:17;3.60;99.90
35373;DHT22;21476;51.652;7.852;2022-12-07T07:42:42;3.60;99.90
35373;DHT22;21476;51.652;7.852;2022-12-07T07:45:08;3.60;99.90
35373;DHT22;21476;51.652;7.852;2022-12-07T07:47:34;3.50;99.90
35373;DHT22;21476;51.652;7.852;2022-12-07T07:50:00;3.50;99.90
35373;DHT22;21476;51.652;7.852;2022-12-07T07:52:26;3.50;99.90
35373;DHT22;21476;51.652;7.852;2022-12-07T07:54:51;3.50;99.90
35373;DHT22;21476;51.652;7.852;2022-12-07T07:57:17;3.50;99.90
35373;DHT22;21476;51.652;7.852;2022-12-07T07:59:43;3.50;99.90
35373;DHT22;21476;51.652;7.852;2022-12-07T08:02:16;3.60;99.90
35373;DHT22;21476;51.652;7.852;2022-12-07T08:04:42;3.60;99.90
35373;DHT22;21476;51.652;7.852;2022-12-07T08:07:08;3.60;99.90
35373;DHT22;21476;51.652;7.852;2022-12-07T08:09:34;3.60;99.90
35373;DHT22;21476;51.652;7.852;2022-12-07T08:11:59;3.70;99.90
35373;DHT22;21476;51.652;7.852;2022-12-07T08:14:26;3.70;99.90
35373;DHT22;21476;51.652;7.852;2022-12-07T08:16:52;3.70;99.90
35373;DHT22;21476;51.652;7.852;2022-12-07T08:19:18;3.80;99.90
35373;DHT22;21476;51.652;7.852;2022-12-07T08:21:44;3.90;99.90
35373;DHT22;21476;51.652;7.852;2022-12-07T08:24:09;4.00;99.90
35373;DHT22;21476;51.652;7.852;2022-12-07T08:26:35;4.20;99.90
35373;DHT22;21476;51.652;7.852;2022-12-07T08:29:01;4.50;99.90
35373;DHT22;21476;51.652;7.852;2022-12-07T08:31:26;4.70;99.90
35373;DHT22;21476;51.652;7.852;2022-12-07T08:33:53;4.90;99.90
35373;DHT22;21476;51.652;7.852;2022-12-07T08:36:19;5.10;99.90
35373;DHT22;21476;51.652;7.852;2022-12-07T08:38:45;5.30;99.90
35373;DHT22;21476;51.652;7.852;2022-12-07T08:41:10;5.50;99.90
35373;DHT22;21476;51.652;7.852;2022-12-07T08:43:36;6.10;99.90
35373;DHT22;21476;51.652;7.852;2022-12-07T08:46:21;6.50;99.90
35373;DHT22;21476;51.652;7.852;2022-12-07T08:48:53;6.80;99.90
35373;DHT22;21476;51.652;7.852;2022-12-07T08:51:21;7.50;99.90
35373;DHT22;21476;51.652;7.852;2022-12-07T08:53:48;7.90;99.90
35373;DHT22;21476;51.652;7.852;2022-12-07T08:56:14;8.30;99.90
35373;DHT22;21476;51.652;7.852;2022-12-07T08:58:40;8.60;99.90
35373;DHT22;21476;51.652;7.852;2022-12-07T09:01:07;8.70;99.90
35373;DHT22;21476;51.652;7.852;2022-12-07T09:03:32;9.20;99.90
35373;DHT22;21476;51.652;7.852;2022-12-07T09:05:59;8.90;99.90
35373;DHT22;21476;51.652;7.852;2022-12-07T09:08:29;8.40;99.90
35373;DHT22;21476;51.652;7.852;2022-12-07T09:10:55;8.00;99.90
35373;DHT22;21476;51.652;7.852;2022-12-07T09:13:21;7.50;99.90
35373;DHT22;21476;51.652;7.852;2022-12-07T09:15:47;7.20;99.90
35373;DHT22;21476;51.652;7.852;2022-12-07T09:18:12;8.10;99.90
35373;DHT22;21476;51.652;7.852;2022-12-07T09:20:38;9.00;99.90
35373;DHT22;21476;51.652;7.852;2022-12-07T09:23:06;10.30;99.90
35373;DHT22;21476;51.652;7.852;2022-12-07T09:25:32;11.10;99.90
35373;DHT22;21476;51.652;7.852;2022-12-07T09:27:58;11.70;99.90
35373;DHT22;21476;51.652;7.852;2022-12-07T09:30:25;11.60;99.90
35373;DHT22;21476;51.652;7.852;2022-12-07T09:32:53;11.80;99.90
35373;DHT22;21476;51.652;7.852;2022-12-07T09:35:19;12.90;99.90
35373;DHT22;21476;51.652;7.852;2022-12-07T09:37:44;13.50;99.90
35373;DHT22;21476;51.652;7.852;2022-12-07T09:40:12;13.80;99.90
35373;DHT22;21476;51.652;7.852;2022-12-07T09:42:42;14.10;99.90
35373;DHT22;21476;51.652;7.852;2022-12-07T09:45:18;14.40;99.90
35373;DHT22;21476;51.652;7.852;2022-12-07T09:47:45;14.50;99.90
35373;DHT22;21476;51.652;7.852;2022-12-07T09:50:16;14.00;99.90
35373;DHT22;21476;51.652;7.852;2022-12-07T09:52:44;14.50;99.90
35373;DHT22;21476;51.652;7.852;2022-12-07T09:55:16;14.50;99.90
35373;DHT22;21476;51.652;7.852;2022-12-07T09:57:45;14.00;99.90
35373;DHT22;21476;51.652;7.852;2022-12-07T10:00:16;12.50;99.90
35373;DHT22;21476;51.652;7.852;2022-12-07T10:02:47;11.50;99.90
35373;DHT22;21476;51.652;7.852;2022-12-07T10:08:01;9.60;99.90
35373;DHT22;21476;51.652;7.852;2022-12-07T10:10:31;9.10;99.90
35373;DHT22;21476;51.652;7.852;2022-12-07T10:18:39;7.30;99.90
35373;DHT22;21476;51.652;7.852;2022-12-07T10:21:15;7.10;99.90
35373;DHT22;21476;51.652;7.852;2022-12-07T10:26:52;6.50;99.90
35373;DHT22;21476;51.652;7.852;2022-12-07T10:29:31;6.50;99.90
35373;DHT22;21476;51.652;7.852;2022-12-07T10:34:35;6.20;99.90
35373;DHT22;21476;51.652;7.852;2022-12-07T10:39:52;6.20;99.90
35373;DHT22;21476;51.652;7.852;2022-12-07T10:42:30;6.40;99.90
35373;DHT22;21476;51.652;7.852;2022-12-07T10:45:14;6.60;99.90
35373;DHT22;21476;51.652;7.852;2022-12-07T10:48:23;7.20;99.90
35373;DHT22;21476;51.652;7.852;2022-12-07T10:56:14;9.80;99.90
35373;DHT22;21476;51.652;7.852;2022-12-07T11:04:19;9.30;99.90
35373;DHT22;21476;51.652;7.852;2022-12-07T11:12:46;8.10;99.90
35373;DHT22;21476;51.652;7.852;2022-12-07T11:18:22;8.20;99.90
35373;DHT22;21476;51.652;7.852;2022-12-07T11:23:52;9.10;99.90
35373;DHT22;21476;51.652;7.852;2022-12-07T11:36:55;7.80;99.90
35373;DHT22;21476;51.652;7.852;2022-12-07T11:41:51;7.70;99.90
35373;DHT22;21476;51.652;7.852;2022-12-07T11:44:34;7.50;99.90
35373;DHT22;21476;51.652;7.852;2022-12-07T11:47:35;7.40;99.90
35373;DHT22;21476;51.652;7.852;2022-12-07T11:52:53;7.20;99.90
35373;DHT22;21476;51.652;7.852;2022-12-07T12:06:26;7.20;99.90
35373;DHT22;21476;51.652;7.852;2022-12-07T12:12:17;7.10;99.90
35373;DHT22;21476;51.652;7.852;2022-12-07T12:17:50;7.00;99.90
35373;DHT22;21476;51.652;7.852;2022-12-07T12:20:31;7.00;99.90
35373;DHT22;21476;51.652;7.852;2022-12-07T12:23:23;6.90;99.90
35373;DHT22;21476;51.652;7.852;2022-12-07T12:25:52;6.90;99.90
35373;DHT22;21476;51.652;7.852;2022-12-07T12:28:30;6.90;99.90
35373;DHT22;21476;51.652;7.852;2022-12-07T12:38:49;6.70;99.90
35373;DHT22;21476;51.652;7.852;2022-12-07T12:51:51;6.60;99.90
35373;DHT22;21476;51.652;7.852;2022-12-07T12:54:27;6.60;99.90
35373;DHT22;21476;51.652;7.852;2022-12-07T12:57:09;6.60;99.90
35373;DHT22;21476;51.652;7.852;2022-12-07T13:00:22;6.40;99.90
35373;DHT22;21476;51.652;7.852;2022-12-07T13:02:53;6.40;99.90
35373;DHT22;21476;51.652;7.852;2022-12-07T13:05:26;6.30;99.90
35373;DHT22;21476;51.652;7.852;2022-12-07T13:13:03;6.20;99.90
35373;DHT22;21476;51.652;7.852;2022-12-07T13:15:39;6.30;99.90
35373;DHT22;21476;51.652;7.852;2022-12-07T13:36:56;6.40;99.90
35373;DHT22;21476;51.652;7.852;2022-12-07T13:39:24;6.40;99.90
35373;DHT22;21476;51.652;7.852;2022-12-07T13:41:56;6.40;99.90
35373;DHT22;21476;51.652;7.852;2022-12-07T13:44:24;6.30;99.90
35373;DHT22;21476;51.652;7.852;2022-12-07T13:49:46;6.30;99.90
35373;DHT22;21476;51.652;7.852;2022-12-07T13:52:21;6.30;99.90
35373;DHT22;21476;51.652;7.852;2022-12-07T13:57:33;6.20;99.90
35373;DHT22;21476;51.652;7.852;2022-12-07T14:00:01;6.10;99.90
35373;DHT22;21476;51.652;7.852;2022-12-07T14:02:30;6.00;99.90
35373;DHT22;21476;51.652;7.852;2022-12-07T14:05:14;6.10;99.90
35373;DHT22;21476;51.652;7.852;2022-12-07T14:08:01;6.00;99.90
35373;DHT22;21476;51.652;7.852;2022-12-07T14:10:34;6.00;99.90
35373;DHT22;21476;51.652;7.852;2022-12-07T14:13:02;6.00;99.90
35373;DHT22;21476;51.652;7.852;2022-12-07T14:15:33;6.00;99.90
35373;DHT22;21476;51.652;7.852;2022-12-07T14:21:37;6.00;99.90
35373;DHT22;21476;51.652;7.852;2022-12-07T14:24:15;5.90;99.90
35373;DHT22;21476;51.652;7.852;2022-12-07T14:26:53;5.80;99.90
35373;DHT22;21476;51.652;7.852;2022-12-07T14:29:42;5.70;99.90
35373;DHT22;21476;51.652;7.852;2022-12-07T14:35:24;5.70;99.90
35373;DHT22;21476;51.652;7.852;2022-12-07T14:51:26;5.40;99.90
35373;DHT22;21476;51.652;7.852;2022-12-07T14:54:14;5.30;99.90
35373;DHT22;21476;51.652;7.852;2022-12-07T14:57:12;5.20;99.90
35373;DHT22;21476;51.652;7.852;2022-12-07T15:19:47;4.90;99.90
35373;DHT22;21476;51.652;7.852;2022-12-07T15:22:13;4.90;99.90
35373;DHT22;21476;51.652;7.852;2022-12-07T15:24:38;4.90;99.90
35373;DHT22;21476;51.652;7.852;2022-12-07T15:27:04;4.80;99.90
35373;DHT22;21476;51.652;7.852;2022-12-07T15:29:29;4.80;99.90
35373;DHT22;21476;51.652;7.852;2022-12-07T15:31:55;4.80;99.90
35373;DHT22;21476;51.652;7.852;2022-12-07T15:34:23;4.80;99.90
35373;DHT22;21476;51.652;7.852;2022-12-07T15:36:48;4.70;99.90
35373;DHT22;21476;51.652;7.852;2022-12-07T15:39:14;4.60;99.90
35373;DHT22;21476;51.652;7.852;2022-12-07T15:41:39;4.60;99.90
35373;DHT22;21476;51.652;7.852;2022-12-07T15:44:05;4.50;99.90
35373;DHT22;21476;51.652;7.852;2022-12-07T15:46:49;4.50;99.90
35373;DHT22;21476;51.652;7.852;2022-12-07T15:49:17;4.50;99.90
35373;DHT22;21476;51.652;7.852;2022-12-07T15:51:43;4.40;99.90
35373;DHT22;21476;51.652;7.852;2022-12-07T15:54:21;4.40;99.90
35373;DHT22;21476;51.652;7.852;2022-12-07T15:56:47;4.30;99.90
35373;DHT22;21476;51.652;7.852;2022-12-07T15:59:13;4.30;99.90
35373;DHT22;21476;51.652;7.852;2022-12-07T16:01:38;4.30;99.90
35373;DHT22;21476;51.652;7.852;2022-12-07T16:04:04;4.30;99.90
35373;DHT22;21476;51.652;7.852;2022-12-07T16:06:30;4.20;99.90
35373;DHT22;21476;51.652;7.852;2022-12-07T16:08:56;4.20;99.90
35373;DHT22;21476;51.652;7.852;2022-12-07T16:11:22;4.20;99.90
35373;DHT22;21476;51.652;7.852;2022-12-07T16:13:48;4.20;99.90
35373;DHT22;21476;51.652;7.852;2022-12-07T16:16:15;4.20;99.90
35373;DHT22;21476;51.652;7.852;2022-12-07T16:18:43;4.10;99.90
35373;DHT22;21476;51.652;7.852;2022-12-07T16:21:09;4.10;99.90
35373;DHT22;21476;51.652;7.852;2022-12-07T16:23:34;4.10;99.90
35373;DHT22;21476;51.652;7.852;2022-12-07T16:26:08;4.10;99.90
35373;DHT22;21476;51.652;7.852;2022-12-07T16:28:34;4.10;99.90
35373;DHT22;21476;51.652;7.852;2022-12-07T16:31:05;4.10;99.90
35373;DHT22;21476;51.652;7.852;2022-12-07T16:33:33;4.10;99.90
35373;DHT22;21476;51.652;7.852;2022-12-07T16:35:59;4.10;99.90
35373;DHT22;21476;51.652;7.852;2022-12-07T16:38:25;4.10;99.90
35373;DHT22;21476;51.652;7.852;2022-12-07T16:40:51;4.10;99.90
35373;DHT22;21476;51.652;7.852;2022-12-07T16:43:16;4.10;99.90
35373;DHT22;21476;51.652;7.852;2022-12-07T16:45:42;4.20;99.90
35373;DHT22;21476;51.652;7.852;2022-12-07T16:48:08;4.20;99.90
35373;DHT22;21476;51.652;7.852;2022-12-07T16:50:33;4.20;99.90
35373;DHT22;21476;51.652;7.852;2022-12-07T16:52:59;4.20;99.90
35373;DHT22;21476;51.652;7.852;2022-12-07T16:55:24;4.30;99.90
35373;DHT22;21476;51.652;7.852;2022-12-07T16:57:50;4.30;99.90
35373;DHT22;21476;51.652;7.852;2022-12-07T17:00:16;4.20;99.90
35373;DHT22;21476;51.652;7.852;2022-12-07T17:02:42;4.20;99.90
35373;DHT22;21476;51.652;7.852;2022-12-07T17:05:07;4.20;99.90
35373;DHT22;21476;51.652;7.852;2022-12-07T17:07:33;4.20;99.90
35373;DHT22;21476;51.652;7.852;2022-12-07T17:09:59;4.30;99.90
35373;DHT22;21476;51.652;7.852;2022-12-07T17:12:25;4.20;99.90
35373;DHT22;21476;51.652;7.852;2022-12-07T17:14:51;4.20;99.90
35373;DHT22;21476;51.652;7.852;2022-12-07T17:17:35;4.30;99.90
35373;DHT22;21476;51.652;7.852;2022-12-07T17:20:01;4.30;99.90
35373;DHT22;21476;51.652;7.852;2022-12-07T17:22:26;4.30;99.90
35373;DHT22;21476;51.652;7.852;2022-12-07T17:24:52;4.30;99.90
35373;DHT22;21476;51.652;7.852;2022-12-07T17:27:18;4.30;99.90
35373;DHT22;21476;51.652;7.852;2022-12-07T17:29:43;4.40;99.90
35373;DHT22;21476;51.652;7.852;2022-12-07T17:32:09;4.40;99.90
35373;DHT22;21476;51.652;7.852;2022-12-07T17:34:34;4.40;99.90
35373;DHT22;21476;51.652;7.852;2022-12-07T17:37:02;4.40;99.90
35373;DHT22;21476;51.652;7.852;2022-12-07T17:39:29;4.50;99.90
35373;DHT22;21476;51.652;7.852;2022-12-07T17:41:54;4.40;99.90
35373;DHT22;21476;51.652;7.852;2022-12-07T17:44:38;4.50;99.90
35373;DHT22;21476;51.652;7.852;2022-12-07T17:47:04;4.50;99.90
35373;DHT22;21476;51.652;7.852;2022-12-07T17:49:31;4.50;99.90
35373;DHT22;21476;51.652;7.852;2022-12-07T17:51:57;4.60;99.90
35373;DHT22;21476;51.652;7.852;2022-12-07T17:54:41;4.50;99.90
35373;DHT22;21476;51.652;7.852;2022-12-07T17:57:07;4.50;99.90
35373;DHT22;21476;51.652;7.852;2022-12-07T17:59:33;4.50;99.90
35373;DHT22;21476;51.652;7.852;2022-12-07T18:01:58;4.50;99.90
35373;DHT22;21476;51.652;7.852;2022-12-07T18:04:25;4.50;99.90
35373;DHT22;21476;51.652;7.852;2022-12-07T18:06:50;4.50;99.90
35373;DHT22;21476;51.652;7.852;2022-12-07T18:09:17;4.50;99.90
35373;DHT22;21476;51.652;7.852;2022-12-07T18:11:43;4.50;99.90
35373;DHT22;21476;51.652;7.852;2022-12-07T18:14:08;4.50;99.90
35373;DHT22;21476;51.652;7.852;2022-12-07T18:16:34;4.50;99.90
35373;DHT22;21476;51.652;7.852;2022-12-07T18:19:04;4.50;99.90
35373;DHT22;21476;51.652;7.852;2022-12-07T18:21:32;4.50;99.90
35373;DHT22;21476;51.652;7.852;2022-12-07T18:23:59;4.50;99.90
35373;DHT22;21476;51.652;7.852;2022-12-07T18:26:27;4.50;99.90
35373;DHT22;21476;51.652;7.852;2022-12-07T18:28:53;4.50;99.90
35373;DHT22;21476;51.652;7.852;2022-12-07T18:31:19;4.50;99.90
35373;DHT22;21476;51.652;7.852;2022-12-07T18:33:45;4.60;99.90
35373;DHT22;21476;51.652;7.852;2022-12-07T18:36:12;4.50;99.90
35373;DHT22;21476;51.652;7.852;2022-12-07T18:38:38;4.50;99.90
35373;DHT22;21476;51.652;7.852;2022-12-07T18:41:07;4.50;99.90
35373;DHT22;21476;51.652;7.852;2022-12-07T18:43:33;4.50;99.90
35373;DHT22;21476;51.652;7.852;2022-12-07T18:45:58;4.40;99.90
35373;DHT22;21476;51.652;7.852;2022-12-07T18:48:24;4.50;99.90
35373;DHT22;21476;51.652;7.852;2022-12-07T18:51:04;4.50;99.90
35373;DHT22;21476;51.652;7.852;2022-12-07T18:53:31;4.50;99.90
35373;DHT22;21476;51.652;7.852;2022-12-07T18:56:17;4.40;99.90
35373;DHT22;21476;51.652;7.852;2022-12-07T18:58:43;4.50;99.90
35373;DHT22;21476;51.652;7.852;2022-12-07T19:01:31;4.50;99.90
35373;DHT22;21476;51.652;7.852;2022-12-07T19:03:58;4.50;99.90
35373;DHT22;21476;51.652;7.852;2022-12-07T19:06:24;4.50;99.90
35373;DHT22;21476;51.652;7.852;2022-12-07T19:08:49;4.50;99.90
35373;DHT22;21476;51.652;7.852;2022-12-07T19:11:32;4.50;99.90
35373;DHT22;21476;51.652;7.852;2022-12-07T19:14:33;4.40;99.90
35373;DHT22;21476;51.652;7.852;2022-12-07T19:17:02;4.40;99.90
35373;DHT22;21476;51.652;7.852;2022-12-07T19:19:39;4.50;99.90
35373;DHT22;21476;51.652;7.852;2022-12-07T19:22:06;4.50;99.90
35373;DHT22;21476;51.652;7.852;2022-12-07T19:24:32;4.40;99.90
35373;DHT22;21476;51.652;7.852;2022-12-07T19:26:58;4.50;99.90